Time;durP1;ratioP1;P1;durP2;ratioP2;P2;SDS_P1;SDS_P2;PMS_P1;PMS_P2;Temp;Humidity;BMP_temperature;BMP_pressure;BME280_temperature;BME280_humidity;BME280_pressure;Samples;Min_cycle;Max_cycle;Signal;HPM_P1;HPM_P2
2022/06/22 00:02:17;;;;;;;14.32;9.02;;;11.60;98.50;;;;;;5138236;27;20038;-63
2022/06/22 00:04:52;;;;;;;14.68;8.68;;;11.50;98.40;;;;;;5146903;27;20077;-64
2022/06/22 00:07:24;;;;;;;15.75;9.43;;;11.40;98.30;;;;;;5148141;27;20027;-64
2022/06/22 00:09:56;;;;;;;12.27;8.65;;;11.40;98.40;;;;;;5148019;27;20042;-63
2022/06/22 00:12:28;;;;;;;14.95;8.57;;;11.30;98.40;;;;;;5143593;27;20034;-63
2022/06/22 00:14:57;;;;;;;11.48;8.80;;;11.20;98.60;;;;;;5141522;27;20068;-63
2022/06/22 00:17:33;;;;;;;13.90;8.63;;;11.20;98.80;;;;;;5144664;27;20561;-63
2022/06/22 00:20:02;;;;;;;16.17;8.52;;;11.10;98.80;;;;;;5143184;27;20604;-63
2022/06/22 00:22:27;;;;;;;13.07;7.88;;;11.10;98.80;;;;;;5140185;27;20046;-63
2022/06/22 00:25:00;;;;;;;12.77;7.68;;;11.00;98.60;;;;;;5149543;27;20547;-61
2022/06/22 00:27:30;;;;;;;14.27;9.23;;;10.90;98.60;;;;;;5128285;27;20570;-63
2022/06/22 00:30:07;;;;;;;13.48;9.40;;;10.90;98.70;;;;;;5150746;27;20065;-63
2022/06/22 00:32:33;;;;;;;13.00;9.02;;;10.80;99.00;;;;;;5143283;27;20038;-63
2022/06/22 00:35:37;;;;;;;16.08;8.48;;;10.80;98.90;;;;;;5138265;27;20445;-63
2022/06/22 00:38:05;;;;;;;13.68;8.25;;;10.70;99.10;;;;;;5140313;27;20026;-63
2022/06/22 00:40:30;;;;;;;13.10;8.60;;;10.70;98.90;;;;;;5147335;27;20049;-63
2022/06/22 00:42:56;;;;;;;10.80;8.15;;;10.80;98.80;;;;;;5146323;27;20035;-63
2022/06/22 00:45:31;;;;;;;15.30;8.68;;;10.80;98.60;;;;;;5146245;27;20493;-63
2022/06/22 00:47:58;;;;;;;11.77;8.75;;;10.70;98.60;;;;;;5144114;27;20034;-63
2022/06/22 00:50:36;;;;;;;12.55;7.88;;;10.60;98.50;;;;;;5127320;27;20458;-63
2022/06/22 00:53:04;;;;;;;14.32;8.88;;;10.50;98.50;;;;;;5143664;27;20054;-63
2022/06/22 00:55:40;;;;;;;12.38;8.68;;;10.50;98.50;;;;;;5143122;27;20077;-63
2022/06/22 00:58:34;;;;;;;15.02;8.32;;;10.50;98.60;;;;;;5134285;27;20655;-63
2022/06/22 01:01:14;;;;;;;10.18;7.75;;;10.50;98.80;;;;;;5127346;27;20534;-63
2022/06/22 01:03:47;;;;;;;13.25;7.30;;;10.50;98.60;;;;;;5137549;27;20076;-63
2022/06/22 01:06:17;;;;;;;15.00;9.23;;;10.50;98.50;;;;;;5142970;27;20459;-63
2022/06/22 01:09:05;;;;;;;13.60;8.48;;;10.40;98.50;;;;;;5135788;27;20450;-63
2022/06/22 01:14:57;;;;;;;15.35;9.00;;;10.20;99.60;;;;;;5141273;27;20071;-63
2022/06/22 01:17:32;;;;;;;13.13;9.18;;;10.20;99.90;;;;;;5148186;27;20496;-63
2022/06/22 01:20:42;;;;;;;13.63;8.68;;;10.10;99.90;;;;;;5136881;27;20038;-63
2022/06/22 01:23:20;;;;;;;11.90;7.73;;;10.10;99.90;;;;;;5135202;27;20494;-63
2022/06/22 01:26:04;;;;;;;15.75;8.98;;;10.10;99.90;;;;;;5140753;27;20037;-63
2022/06/22 01:28:30;;;;;;;12.68;8.18;;;10.10;99.80;;;;;;5145291;27;20045;-63
2022/06/22 01:31:04;;;;;;;17.02;9.90;;;10.00;99.50;;;;;;5147293;27;20399;-63
2022/06/22 01:33:41;;;;;;;11.75;8.07;;;10.00;99.90;;;;;;5137465;27;20060;-63
2022/06/22 01:36:16;;;;;;;16.02;8.77;;;10.00;99.90;;;;;;5142328;27;20390;-63
2022/06/22 01:38:42;;;;;;;13.77;9.38;;;10.00;99.90;;;;;;5144377;27;20046;-63
2022/06/22 01:41:37;;;;;;;14.98;8.93;;;9.90;99.90;;;;;;5141619;27;20043;-62
2022/06/22 01:44:08;;;;;;;13.63;8.75;;;9.80;99.90;;;;;;5143760;27;20078;-63
2022/06/22 01:47:08;;;;;;;13.82;8.88;;;9.90;99.90;;;;;;5150548;27;20121;-63
2022/06/22 01:49:43;;;;;;;13.37;8.97;;;9.90;99.90;;;;;;5138862;27;20364;-63
2022/06/22 01:52:31;;;;;;;14.15;8.77;;;9.90;99.80;;;;;;5137888;27;20451;-63
2022/06/22 01:55:04;;;;;;;15.15;9.18;;;9.90;99.70;;;;;;5147837;27;20107;-63
2022/06/22 01:57:36;;;;;;;12.93;8.18;;;9.80;99.80;;;;;;5136396;27;20042;-63
2022/06/22 02:00:18;;;;;;;11.88;8.70;;;9.70;99.70;;;;;;5134912;27;20039;-62
2022/06/22 02:03:01;;;;;;;9.95;7.53;;;9.60;99.90;;;;;;5139684;27;20103;-63
2022/06/22 02:05:41;;;;;;;13.48;8.10;;;9.50;99.90;;;;;;5142478;27;20046;-63
2022/06/22 02:08:20;;;;;;;11.90;8.48;;;9.50;99.90;;;;;;5146728;27;20050;-63
2022/06/22 02:10:52;;;;;;;11.48;7.70;;;9.40;99.90;;;;;;5141890;27;20035;-63
2022/06/22 02:13:34;;;;;;;11.45;7.32;;;9.50;99.90;;;;;;5118724;27;20039;-63
2022/06/22 02:16:26;;;;;;;12.48;8.18;;;9.50;99.90;;;;;;5146745;27;20046;-63
2022/06/22 02:18:58;;;;;;;11.02;7.45;;;9.40;99.90;;;;;;5139683;27;20512;-63
2022/06/22 02:21:23;;;;;;;11.80;8.07;;;9.30;99.90;;;;;;5143332;27;20153;-63
2022/06/22 02:24:03;;;;;;;13.20;8.23;;;9.20;99.90;;;;;;5144671;27;20126;-63
2022/06/22 02:26:35;;;;;;;12.52;8.35;;;9.10;99.90;;;;;;5144759;27;20414;-63
2022/06/22 02:29:02;;;;;;;14.45;8.63;;;9.10;99.90;;;;;;5139396;27;20023;-63
2022/06/22 02:31:27;;;;;;;10.45;8.00;;;9.20;99.90;;;;;;5142037;27;20105;-63
2022/06/22 02:33:55;;;;;;;11.95;7.60;;;9.20;99.90;;;;;;5117480;27;20126;-62
2022/06/22 02:36:25;;;;;;;13.80;8.20;;;9.20;99.90;;;;;;5143827;27;20030;-63
2022/06/22 02:38:55;;;;;;;14.05;8.27;;;9.20;99.90;;;;;;5127309;27;20042;-63
2022/06/22 02:44:31;;;;;;;12.10;7.80;;;9.20;99.90;;;;;;5140397;27;20053;-63
2022/06/22 02:47:31;;;;;;;13.83;7.80;;;9.10;99.90;;;;;;5142382;27;20466;-63
2022/06/22 02:50:24;;;;;;;11.63;7.83;;;9.10;99.90;;;;;;5142016;27;20427;-63
2022/06/22 02:52:53;;;;;;;13.77;7.75;;;9.00;99.90;;;;;;5119480;27;20501;-63
2022/06/22 02:55:22;;;;;;;13.75;8.50;;;8.90;99.90;;;;;;5149182;27;20375;-63
2022/06/22 02:57:50;;;;;;;12.48;8.07;;;8.90;99.90;;;;;;5126591;27;20031;-63
2022/06/22 03:00:19;;;;;;;14.07;8.85;;;8.90;99.90;;;;;;5145938;27;21763;-63
2022/06/22 03:02:45;;;;;;;15.98;8.90;;;8.90;99.90;;;;;;5140459;27;20083;-63
2022/06/22 03:05:12;;;;;;;15.43;9.63;;;8.90;99.90;;;;;;5147031;27;20035;-63
2022/06/22 03:07:46;;;;;;;18.20;10.60;;;9.00;99.90;;;;;;5152170;27;20381;-63
2022/06/22 03:10:21;;;;;;;17.17;10.18;;;8.90;99.90;;;;;;5142476;27;20399;-63
2022/06/22 03:12:47;;;;;;;15.70;9.45;;;8.80;99.90;;;;;;5147078;27;20401;-63
2022/06/22 03:15:17;;;;;;;14.15;8.23;;;8.90;99.90;;;;;;5139628;27;20030;-63
2022/06/22 03:17:43;;;;;;;14.68;9.27;;;8.90;99.90;;;;;;5136913;27;20043;-63
2022/06/22 03:20:14;;;;;;;13.10;8.63;;;8.90;99.90;;;;;;5147386;27;20038;-63
2022/06/22 03:22:45;;;;;;;12.40;8.52;;;8.90;99.90;;;;;;5145852;27;20501;-63
2022/06/22 03:25:19;;;;;;;12.32;8.38;;;8.90;99.90;;;;;;5141164;27;20505;-63
2022/06/22 03:27:51;;;;;;;13.52;8.95;;;8.90;99.90;;;;;;5148001;27;20030;-63
2022/06/22 03:30:27;;;;;;;13.98;8.38;;;8.90;99.90;;;;;;5137068;27;20033;-63
2022/06/22 03:33:00;;;;;;;16.35;8.40;;;8.90;99.90;;;;;;5144686;27;20031;-63
2022/06/22 03:35:31;;;;;;;14.15;8.57;;;8.90;99.90;;;;;;5147942;27;20054;-63
2022/06/22 03:38:05;;;;;;;17.08;9.93;;;8.90;99.90;;;;;;5148150;27;20034;-63
2022/06/22 03:40:32;;;;;;;19.40;10.20;;;9.00;99.90;;;;;;5148412;27;20077;-63
2022/06/22 03:43:53;;;;;;;28.25;12.02;;;9.00;99.90;;;;;;5140808;27;20043;-63
2022/06/22 03:46:44;;;;;;;17.08;10.38;;;9.00;99.90;;;;;;5118242;27;20057;-63
2022/06/22 03:49:22;;;;;;;20.63;11.75;;;8.90;99.90;;;;;;5145390;27;20553;-63
2022/06/22 03:52:15;;;;;;;23.65;11.32;;;8.80;99.90;;;;;;5131260;27;20039;-63
2022/06/22 03:54:45;;;;;;;21.58;10.63;;;8.90;99.90;;;;;;5141650;27;20050;-64
2022/06/22 03:57:14;;;;;;;20.88;10.15;;;8.90;99.90;;;;;;5149051;27;20497;-64
2022/06/22 03:59:44;;;;;;;22.55;11.05;;;9.00;99.90;;;;;;5141628;27;20038;-63
2022/06/22 04:02:10;;;;;;;17.97;10.27;;;9.00;99.90;;;;;;5149959;27;20042;-63
2022/06/22 04:04:36;;;;;;;17.70;10.70;;;9.00;99.90;;;;;;5141796;27;20035;-63
2022/06/22 04:07:02;;;;;;;26.38;12.35;;;9.00;99.90;;;;;;5139819;27;20031;-63
2022/06/22 04:09:29;;;;;;;35.92;14.23;;;9.10;99.90;;;;;;5129571;27;20066;-63
2022/06/22 04:12:00;;;;;;;36.00;14.07;;;9.20;99.90;;;;;;5134366;27;20031;-63
2022/06/22 04:14:53;;;;;;;25.63;12.88;;;9.40;99.90;;;;;;5144936;27;20035;-63
2022/06/22 04:17:33;;;;;;;28.15;12.55;;;9.50;99.90;;;;;;5130724;27;20031;-63
2022/06/22 04:20:07;;;;;;;29.10;11.45;;;9.60;99.90;;;;;;5137040;27;20034;-64
2022/06/22 04:22:38;;;;;;;37.83;12.13;;;9.70;99.90;;;;;;5110009;27;20035;-63
2022/06/22 04:25:30;;;;;;;34.08;12.02;;;9.80;99.90;;;;;;5142510;27;20043;-64
2022/06/22 04:27:59;;;;;;;43.28;11.43;;;9.90;99.90;;;;;;5144265;27;20685;-63
2022/06/22 04:30:35;;;;;;;32.42;11.38;;;9.80;99.90;;;;;;5138811;27;20416;-63
2022/06/22 04:33:28;;;;;;;29.83;11.55;;;9.90;99.90;;;;;;5138726;27;20027;-63
2022/06/22 04:36:00;;;;;;;41.83;11.70;;;10.00;99.90;;;;;;5142921;27;20061;-63
2022/06/22 04:38:38;;;;;;;65.63;13.07;;;10.10;99.90;;;;;;5144882;27;20043;-63
2022/06/22 04:41:29;;;;;;;49.70;11.38;;;10.10;99.90;;;;;;5144468;27;20034;-63
2022/06/22 04:44:23;;;;;;;39.25;11.95;;;10.20;99.90;;;;;;5142459;27;20493;-63
2022/06/22 04:46:51;;;;;;;24.02;10.07;;;10.30;99.90;;;;;;5141298;27;20527;-63
2022/06/22 04:49:42;;;;;;;23.33;10.32;;;10.40;99.90;;;;;;5143916;27;20042;-64
2022/06/22 04:52:21;;;;;;;22.23;9.68;;;10.60;99.90;;;;;;5141732;27;20114;-63
2022/06/22 04:54:50;;;;;;;27.35;10.48;;;10.70;99.90;;;;;;5143737;27;20063;-63
2022/06/22 04:57:25;;;;;;;21.35;9.88;;;10.70;99.90;;;;;;5143290;27;20533;-63
2022/06/22 04:59:55;;;;;;;20.48;9.77;;;10.70;99.90;;;;;;5133092;27;20038;-63
2022/06/22 05:02:24;;;;;;;21.75;9.95;;;10.80;99.90;;;;;;5139443;27;20043;-63
2022/06/22 05:05:00;;;;;;;14.80;10.52;;;10.80;99.90;;;;;;5124050;27;20475;-63
2022/06/22 05:07:57;;;;;;;18.33;10.13;;;11.00;99.90;;;;;;5146742;27;20038;-63
2022/06/22 05:10:54;;;;;;;18.52;10.73;;;11.10;99.90;;;;;;5115859;27;20449;-63
2022/06/22 05:13:38;;;;;;;18.60;10.10;;;11.20;99.90;;;;;;5145421;27;20174;-63
2022/06/22 05:16:06;;;;;;;16.30;10.15;;;11.30;99.90;;;;;;5141345;27;20067;-63
2022/06/22 05:18:38;;;;;;;16.50;10.80;;;11.40;99.90;;;;;;5142255;27;20034;-63
2022/06/22 05:21:09;;;;;;;16.63;11.13;;;11.50;99.90;;;;;;5143305;27;20042;-63
2022/06/22 05:23:36;;;;;;;19.77;11.88;;;11.70;99.90;;;;;;5141694;27;20045;-64
2022/06/22 05:26:06;;;;;;;18.15;11.68;;;11.90;99.90;;;;;;5136572;27;20571;-64
2022/06/22 05:28:56;;;;;;;20.08;12.50;;;12.00;99.90;;;;;;5129741;27;20039;-63
2022/06/22 05:31:32;;;;;;;19.92;12.18;;;12.20;99.90;;;;;;5141287;27;20039;-63
2022/06/22 05:34:02;;;;;;;20.60;12.48;;;12.50;99.90;;;;;;5141604;27;20038;-64
2022/06/22 05:36:31;;;;;;;19.23;12.55;;;12.70;99.90;;;;;;5144296;27;20042;-64
2022/06/22 05:38:59;;;;;;;18.08;12.10;;;13.00;99.90;;;;;;5139514;27;20042;-64
2022/06/22 05:41:30;;;;;;;21.20;13.63;;;13.20;99.90;;;;;;5141781;27;20031;-64
2022/06/22 05:43:58;;;;;;;19.25;12.95;;;13.40;99.90;;;;;;5140303;27;20078;-61
2022/06/22 05:46:25;;;;;;;22.40;13.27;;;13.60;99.90;;;;;;5144518;27;20046;-61
2022/06/22 05:48:51;;;;;;;19.10;13.27;;;13.90;99.90;;;;;;5148411;27;20347;-61
2022/06/22 05:51:34;;;;;;;18.58;12.05;;;14.10;99.90;;;;;;5147254;27;20098;-61
2022/06/22 05:54:16;;;;;;;14.63;11.30;;;14.40;99.90;;;;;;5120990;27;20053;-61
2022/06/22 05:56:52;;;;;;;17.15;11.75;;;14.70;99.90;;;;;;5141459;27;20030;-61
2022/06/22 05:59:55;;;;;;;16.60;11.38;;;14.90;99.90;;;;;;5138125;27;20043;-61
2022/06/22 06:02:45;;;;;;;19.48;11.63;;;15.20;97.70;;;;;;5111873;27;20051;-62
2022/06/22 06:05:20;;;;;;;16.23;10.75;;;15.40;98.00;;;;;;5145549;27;20154;-61
2022/06/22 06:07:49;;;;;;;13.65;9.95;;;15.60;98.40;;;;;;5135956;27;20031;-61
2022/06/22 06:10:30;;;;;;;18.65;10.75;;;15.70;98.90;;;;;;5121608;27;20130;-61
2022/06/22 06:13:04;;;;;;;15.20;10.38;;;16.00;97.40;;;;;;5140095;27;20042;-61
2022/06/22 06:15:35;;;;;;;13.05;9.32;;;16.20;97.30;;;;;;5143107;27;20043;-62
2022/06/22 06:18:02;;;;;;;14.55;9.75;;;16.40;97.20;;;;;;5143343;27;20600;-62
2022/06/22 06:20:32;;;;;;;12.43;9.32;;;16.50;97.20;;;;;;5139310;27;20039;-62
2022/06/22 06:23:36;;;;;;;17.75;9.77;;;16.60;96.80;;;;;;5122677;27;20035;-62
2022/06/22 06:29:18;;;;;;;13.43;7.82;;;16.90;96.00;;;;;;5135217;27;22055;-61
2022/06/22 06:32:15;;;;;;;13.10;8.43;;;17.30;93.70;;;;;;5134775;27;20050;-61
2022/06/22 06:34:50;;;;;;;9.63;6.85;;;17.50;91.90;;;;;;5149614;27;20510;-62
2022/06/22 06:37:45;;;;;;;11.32;6.45;;;17.70;91.30;;;;;;5152765;27;20161;-61
2022/06/22 06:40:47;;;;;;;8.68;6.45;;;17.80;84.10;;;;;;5150793;27;20087;-61
2022/06/22 06:43:43;;;;;;;11.63;6.45;;;18.00;82.50;;;;;;5129412;27;20432;-62
2022/06/22 06:46:22;;;;;;;9.70;6.57;;;18.10;81.70;;;;;;5128642;27;20391;-61
2022/06/22 06:48:56;;;;;;;7.18;6.05;;;18.40;83.30;;;;;;5145925;27;20027;-62
2022/06/22 06:51:23;;;;;;;6.35;5.75;;;18.60;83.10;;;;;;5140573;27;20440;-62
2022/06/22 06:54:14;;;;;;;8.02;5.25;;;18.70;84.00;;;;;;5144480;27;20069;-62
2022/06/22 06:56:50;;;;;;;7.88;5.15;;;18.90;77.60;;;;;;5124366;27;20110;-61
2022/06/22 06:59:20;;;;;;;9.30;5.22;;;19.10;77.20;;;;;;5124158;27;20035;-62
2022/06/22 07:01:46;;;;;;;6.90;4.47;;;19.10;77.90;;;;;;5126274;27;20053;-63
2022/06/22 07:04:22;;;;;;;8.23;4.40;;;19.30;78.60;;;;;;5111620;27;20035;-62
2022/06/22 07:06:54;;;;;;;6.22;4.90;;;19.50;76.10;;;;;;5129336;27;20107;-62
2022/06/22 07:09:34;;;;;;;7.97;4.30;;;19.80;74.30;;;;;;5131262;27;20827;-62
2022/06/22 07:12:29;;;;;;;7.47;4.90;;;20.00;72.20;;;;;;5123607;27;20062;-62
2022/06/22 07:14:58;;;;;;;8.25;5.50;;;20.20;71.20;;;;;;5099071;27;20464;-63
2022/06/22 07:17:24;;;;;;;10.00;5.23;;;20.30;75.00;;;;;;5118979;27;20459;-63
2022/06/22 07:19:56;;;;;;;7.65;4.10;;;20.40;74.40;;;;;;5129467;27;20096;-63
2022/06/22 07:22:30;;;;;;;10.43;4.75;;;20.80;71.40;;;;;;5133732;27;20086;-62
2022/06/22 07:25:07;;;;;;;5.88;4.40;;;20.90;70.40;;;;;;5131209;27;20044;-62
2022/06/22 07:27:41;;;;;;;9.10;5.13;;;21.10;68.60;;;;;;5130936;27;20096;-63
2022/06/22 07:30:28;;;;;;;6.82;4.57;;;21.20;67.40;;;;;;5123600;27;20498;-62
2022/06/22 07:33:07;;;;;;;8.82;4.60;;;21.40;67.40;;;;;;5127605;27;20039;-63
2022/06/22 07:35:42;;;;;;;5.97;3.97;;;21.50;65.40;;;;;;5123491;27;20047;-63
2022/06/22 07:38:16;;;;;;;9.57;4.50;;;21.80;63.10;;;;;;5127158;27;20046;-62
2022/06/22 07:41:18;;;;;;;10.13;4.50;;;22.00;62.50;;;;;;5129918;27;20047;-62
2022/06/22 07:43:31;;;;;;;7.60;4.50;;;22.20;62.90;;;;;;5126219;27;20066;-63
2022/06/22 07:45:57;;;;;;;7.20;4.18;;;22.20;60.90;;;;;;5130194;27;20050;-63
2022/06/22 07:48:24;;;;;;;7.15;4.30;;;22.40;61.10;;;;;;5125587;27;20478;-63
2022/06/22 07:50:59;;;;;;;6.78;4.70;;;22.40;60.60;;;;;;5129200;27;20657;-63
2022/06/22 07:53:37;;;;;;;8.65;4.97;;;22.60;58.90;;;;;;5133584;27;20095;-63
2022/06/22 07:56:27;;;;;;;6.65;4.63;;;22.70;58.70;;;;;;5151653;27;20115;-63
2022/06/22 07:58:57;;;;;;;9.40;3.83;;;22.80;57.30;;;;;;5138667;27;20091;-63
2022/06/22 08:01:31;;;;;;;6.15;4.78;;;23.00;57.70;;;;;;5142288;27;20080;-63
2022/06/22 08:04:10;;;;;;;8.70;4.60;;;23.30;57.40;;;;;;5151580;27;20035;-63
2022/06/22 08:06:51;;;;;;;7.75;4.25;;;23.30;55.20;;;;;;5148873;27;20034;-63
2022/06/22 08:09:28;;;;;;;6.35;4.65;;;23.50;56.10;;;;;;5151574;27;20808;-63
2022/06/22 08:12:09;;;;;;;10.68;4.15;;;23.60;54.90;;;;;;5149858;27;20038;-64
2022/06/22 08:14:44;;;;;;;7.22;4.53;;;23.70;55.40;;;;;;5129907;27;20043;-63
2022/06/22 08:17:42;;;;;;;5.28;3.80;;;23.90;52.80;;;;;;5149734;27;20046;-63
2022/06/22 08:20:11;;;;;;;9.60;3.65;;;24.10;50.50;;;;;;5133517;27;20046;-63
2022/06/22 08:22:42;;;;;;;5.63;3.92;;;24.30;51.40;;;;;;5133444;27;20079;-63
2022/06/22 08:25:09;;;;;;;4.93;3.85;;;24.40;50.50;;;;;;5145874;27;20697;-63
2022/06/22 08:27:34;;;;;;;5.82;2.97;;;24.50;50.00;;;;;;5153474;27;20121;-64
2022/06/22 08:30:00;;;;;;;6.32;3.00;;;24.80;49.70;;;;;;5148836;27;20526;-63
2022/06/22 08:32:48;;;;;;;5.22;3.30;;;25.00;48.30;;;;;;5148945;27;20498;-64
2022/06/22 08:35:39;;;;;;;5.82;3.40;;;25.40;46.80;;;;;;5151715;27;20045;-63
2022/06/22 08:38:25;;;;;;;4.88;3.13;;;25.80;43.80;;;;;;5144016;27;20386;-64
2022/06/22 08:41:19;;;;;;;5.80;3.72;;;25.70;45.40;;;;;;5129349;27;20066;-63
2022/06/22 08:43:54;;;;;;;6.40;3.80;;;26.00;43.60;;;;;;5145037;27;20483;-63
2022/06/22 08:46:38;;;;;;;7.25;3.83;;;26.00;45.00;;;;;;5150684;27;20381;-63
2022/06/22 08:49:28;;;;;;;4.60;3.00;;;26.20;45.00;;;;;;5149260;27;20047;-63
2022/06/22 08:52:12;;;;;;;5.85;3.38;;;26.70;42.60;;;;;;5151449;27;20397;-64
2022/06/22 08:54:44;;;;;;;7.72;3.05;;;27.00;43.30;;;;;;5149487;27;20089;-64
2022/06/22 08:57:40;;;;;;;5.75;3.25;;;27.30;43.90;;;;;;5150405;27;20081;-64
2022/06/22 09:00:28;;;;;;;6.30;3.72;;;27.80;42.90;;;;;;5145609;27;20120;-64
2022/06/22 09:03:23;;;;;;;7.03;4.05;;;28.00;41.20;;;;;;5144592;27;20119;-64
2022/06/22 09:06:21;;;;;;;7.18;4.15;;;28.30;39.10;;;;;;5148414;27;20076;-64
2022/06/22 09:09:08;;;;;;;5.20;3.53;;;28.60;39.60;;;;;;5143137;27;20038;-64
2022/06/22 09:12:14;;;;;;;9.30;3.70;;;28.90;39.70;;;;;;5139298;27;20030;-64
2022/06/22 09:15:17;;;;;;;6.32;3.35;;;29.50;39.10;;;;;;5143258;27;20066;-65
2022/06/22 09:18:13;;;;;;;4.57;3.03;;;30.00;38.40;;;;;;5143375;27;20629;-64
2022/06/22 09:20:58;;;;;;;6.03;3.40;;;30.00;36.20;;;;;;5152783;27;20046;-65
2022/06/22 09:23:42;;;;;;;6.32;3.03;;;30.40;36.70;;;;;;5128957;27;20049;-64
2022/06/22 09:26:12;;;;;;;4.28;3.30;;;30.70;35.90;;;;;;5146564;27;20046;-65
2022/06/22 09:29:01;;;;;;;5.60;3.40;;;30.90;35.80;;;;;;5151145;27;20078;-63
2022/06/22 09:31:51;;;;;;;5.32;3.45;;;31.20;33.10;;;;;;5148716;27;20720;-65
2022/06/22 09:34:53;;;;;;;6.30;3.33;;;31.40;32.90;;;;;;5147142;27;20176;-64
2022/06/22 09:37:38;;;;;;;7.80;3.60;;;31.40;33.70;;;;;;5153039;27;20054;-65
2022/06/22 09:40:09;;;;;;;6.70;4.00;;;31.80;33.80;;;;;;5145429;27;20099;-64
2022/06/22 09:42:54;;;;;;;4.90;3.95;;;31.60;33.40;;;;;;5146406;27;20043;-64
2022/06/22 09:45:35;;;;;;;5.65;4.40;;;32.40;33.30;;;;;;5146777;27;20043;-65
2022/06/22 09:48:14;;;;;;;6.90;4.13;;;32.20;31.20;;;;;;5151003;27;20442;-64
2022/06/22 09:50:57;;;;;;;;;;;32.10;31.70;;;;;;5149863;27;20042;-65
2022/06/22 09:53:41;;;;;;;5.68;3.03;;;32.00;32.80;;;;;;5130850;27;20469;-65
2022/06/22 09:56:52;;;;;;;5.35;3.80;;;32.50;33.40;;;;;;5147233;27;20091;-65
2022/06/22 09:59:37;;;;;;;8.00;3.25;;;32.60;32.70;;;;;;5110610;27;20120;-65
2022/06/22 10:02:44;;;;;;;5.82;3.28;;;32.90;33.20;;;;;;5128650;27;20070;-65
2022/06/22 10:05:16;;;;;;;5.05;2.85;;;32.90;30.90;;;;;;5149216;27;20431;-65
2022/06/22 10:08:02;;;;;;;7.15;4.07;;;33.20;31.70;;;;;;5127956;27;20074;-63
2022/06/22 10:10:48;;;;;;;6.30;2.80;;;33.00;29.60;;;;;;5148173;27;20039;-63
2022/06/22 10:13:34;;;;;;;3.80;2.97;;;33.10;30.90;;;;;;5139426;27;20041;-65
2022/06/22 10:16:32;;;;;;;7.95;3.55;;;33.70;31.10;;;;;;5143888;27;20391;-65
2022/06/22 10:19:26;;;;;;;8.63;3.50;;;34.40;30.90;;;;;;5134494;27;20068;-65
2022/06/22 10:22:14;;;;;;;6.95;3.47;;;34.50;30.00;;;;;;5153005;27;20039;-65
2022/06/22 10:25:14;;;;;;;5.38;3.17;;;34.40;30.00;;;;;;5155738;27;20049;-65
2022/06/22 10:27:55;;;;;;;5.50;2.53;;;34.40;29.60;;;;;;5151337;27;20031;-65
2022/06/22 10:30:48;;;;;;;6.30;3.30;;;34.30;29.60;;;;;;5143765;27;20089;-65
2022/06/22 10:34:06;;;;;;;5.80;2.90;;;33.10;29.70;;;;;;5150984;27;20043;-65
2022/06/22 10:36:50;;;;;;;5.43;3.10;;;34.00;29.80;;;;;;5120546;27;20089;-64
2022/06/22 10:39:54;;;;;;;6.00;3.08;;;34.10;29.60;;;;;;5139384;27;20121;-64
2022/06/22 10:45:56;;;;;;;4.72;3.08;;;34.00;29.40;;;;;;5148408;27;20146;-64
2022/06/22 10:48:33;;;;;;;7.78;3.35;;;33.60;29.80;;;;;;5127666;27;20643;-63
2022/06/22 10:51:30;;;;;;;6.03;3.28;;;34.30;29.90;;;;;;5150345;27;20027;-63
2022/06/22 10:54:13;;;;;;;6.43;3.30;;;34.10;29.40;;;;;;5143428;27;20478;-64
2022/06/22 10:57:00;;;;;;;6.55;3.55;;;33.90;29.60;;;;;;5151863;27;20062;-64
2022/06/22 10:59:54;;;;;;;6.28;3.33;;;33.80;29.20;;;;;;5150833;27;20042;-65
2022/06/22 11:02:38;;;;;;;5.97;3.00;;;34.30;29.00;;;;;;5142574;27;20077;-65
2022/06/22 11:05:22;;;;;;;5.60;2.65;;;33.50;28.80;;;;;;5143646;27;20095;-65
2022/06/22 11:08:13;;;;;;;5.63;3.15;;;32.70;30.00;;;;;;5149178;27;20066;-65
2022/06/22 11:11:06;;;;;;;7.00;3.20;;;31.40;30.80;;;;;;5149495;27;20087;-65
2022/06/22 11:14:05;;;;;;;6.53;2.47;;;30.60;32.60;;;;;;5151179;27;20027;-63
2022/06/22 11:16:51;;;;;;;5.45;2.78;;;29.50;31.90;;;;;;5149621;27;20357;-64
2022/06/22 11:20:03;;;;;;;6.28;2.78;;;28.50;33.30;;;;;;5144670;27;20061;-64
2022/06/22 11:22:32;;;;;;;5.28;2.88;;;28.20;34.50;;;;;;5129421;27;20451;-64
2022/06/22 11:25:07;;;;;;;5.35;2.63;;;27.70;34.80;;;;;;5130680;27;20034;-64
2022/06/22 11:30:55;;;;;;;6.90;3.33;;;27.40;36.20;;;;;;5151536;27;20363;-64
2022/06/22 11:33:41;;;;;;;6.03;2.73;;;27.10;36.70;;;;;;5098442;27;20050;-64
2022/06/22 11:36:29;;;;;;;6.90;4.00;;;27.10;37.20;;;;;;5133969;27;20091;-65
2022/06/22 11:39:19;;;;;;;8.52;3.25;;;27.10;38.40;;;;;;5141745;27;20034;-64
2022/06/22 11:41:44;;;;;;;;;;;27.20;38.60;;;;;;5152595;27;20049;-64
2022/06/22 11:44:27;;;;;;;6.60;3.28;;;26.80;39.60;;;;;;5154052;27;19930;-64
2022/06/22 11:46:55;;;;;;;8.85;4.38;;;27.00;39.50;;;;;;5152548;27;20043;-64
2022/06/22 11:49:44;;;;;;;8.63;4.47;;;27.20;38.90;;;;;;5153338;27;20038;-64
2022/06/22 11:52:28;;;;;;;7.78;3.67;;;27.10;38.30;;;;;;5150754;27;20043;-64
2022/06/22 11:55:17;;;;;;;6.18;3.63;;;27.00;38.70;;;;;;5146952;27;20406;-64
2022/06/22 11:58:08;;;;;;;4.82;2.53;;;26.90;38.70;;;;;;5148914;27;20041;-64
2022/06/22 12:00:52;;;;;;;4.65;3.30;;;26.90;40.20;;;;;;5147523;27;20544;-64
2022/06/22 12:03:48;;;;;;;6.13;4.00;;;27.10;39.80;;;;;;5149616;27;20046;-64
2022/06/22 12:06:31;;;;;;;6.85;3.53;;;27.10;39.70;;;;;;5146963;27;20043;-64
2022/06/22 12:09:21;;;;;;;6.00;3.47;;;27.10;39.80;;;;;;5153820;27;20035;-64
2022/06/22 12:12:18;;;;;;;5.97;4.07;;;27.30;40.40;;;;;;5153263;27;20031;-64
2022/06/22 12:15:14;;;;;;;9.55;4.15;;;27.50;39.30;;;;;;5133012;27;20566;-65
2022/06/22 12:17:57;;;;;;;6.93;4.00;;;28.50;39.60;;;;;;5142635;27;20069;-64
2022/06/22 12:20:29;;;;;;;5.70;3.13;;;29.60;37.80;;;;;;5134964;27;20047;-65
2022/06/22 12:23:07;;;;;;;7.80;4.50;;;30.70;36.00;;;;;;5136387;27;20043;-65
2022/06/22 12:25:43;;;;;;;8.13;3.45;;;30.90;34.70;;;;;;5140683;27;20050;-65
2022/06/22 12:28:53;;;;;;;9.13;4.88;;;32.10;33.50;;;;;;5145798;27;20030;-64
2022/06/22 12:31:20;;;;;;;6.78;4.63;;;33.10;32.40;;;;;;5041165;28;20052;-64
2022/06/22 12:34:04;;;;;;;4.18;3.45;;;34.10;31.40;;;;;;5116021;27;20046;-64
2022/06/22 12:36:58;;;;;;;6.95;3.75;;;35.20;30.10;;;;;;5145512;27;20050;-65
2022/06/22 12:39:37;;;;;;;6.20;3.67;;;36.10;29.90;;;;;;5105753;27;20039;-65
2022/06/22 12:42:12;;;;;;;6.40;3.15;;;37.10;29.30;;;;;;5146232;27;20041;-65
2022/06/22 12:45:02;;;;;;;4.25;3.53;;;37.90;28.30;;;;;;5148702;27;20125;-65
2022/06/22 12:47:39;;;;;;;5.60;2.88;;;38.20;28.10;;;;;;5147586;27;20034;-65
2022/06/22 12:50:46;;;;;;;4.28;2.80;;;38.70;27.90;;;;;;5149166;27;20482;-65
2022/06/22 12:53:19;;;;;;;6.13;3.10;;;39.60;27.40;;;;;;5149465;27;20050;-65
2022/06/22 12:55:49;;;;;;;5.25;2.60;;;39.50;26.80;;;;;;5131501;27;20608;-65
2022/06/22 12:58:31;;;;;;;4.72;3.22;;;39.60;26.40;;;;;;5146992;27;20038;-65
2022/06/22 13:00:58;;;;;;;6.18;2.92;;;39.80;26.00;;;;;;5128550;27;20612;-65
2022/06/22 13:03:28;;;;;;;4.93;2.72;;;39.80;25.90;;;;;;5145355;27;20082;-65
2022/06/22 13:05:55;;;;;;;6.13;2.85;;;39.90;25.80;;;;;;5137369;27;20062;-65
2022/06/22 13:08:26;;;;;;;5.25;2.85;;;40.20;25.60;;;;;;5143488;27;20031;-65
2022/06/22 13:10:58;;;;;;;5.68;3.58;;;40.40;25.50;;;;;;5142969;27;20038;-65
2022/06/22 13:13:47;;;;;;;8.25;4.40;;;40.30;25.30;;;;;;5145206;27;20039;-65
2022/06/22 13:16:32;;;;;;;6.95;3.13;;;40.10;25.40;;;;;;5137166;27;20513;-66
2022/06/22 13:19:08;;;;;;;6.55;3.67;;;40.30;25.40;;;;;;5144181;27;20175;-65
2022/06/22 13:21:47;;;;;;;6.47;3.55;;;40.60;25.20;;;;;;5142550;27;20079;-64
2022/06/22 13:24:13;;;;;;;7.80;4.28;;;40.80;24.40;;;;;;5144672;27;20042;-64
2022/06/22 13:27:00;;;;;;;6.40;3.45;;;40.20;24.60;;;;;;5148540;27;20624;-65
2022/06/22 13:29:43;;;;;;;6.72;4.03;;;40.10;25.20;;;;;;5147583;27;20041;-65
2022/06/22 13:32:12;;;;;;;7.45;4.47;;;39.90;24.80;;;;;;5134708;27;20035;-64
2022/06/22 13:34:49;;;;;;;7.40;4.78;;;39.70;24.60;;;;;;5146828;27;20496;-64
2022/06/22 13:37:51;;;;;;;5.70;3.22;;;39.20;24.30;;;;;;5147893;27;20502;-64
2022/06/22 13:40:39;;;;;;;5.88;3.53;;;39.40;25.00;;;;;;5145049;27;20053;-65
2022/06/22 13:43:58;;;;;;;10.90;4.68;;;39.30;25.00;;;;;;5147290;27;20039;-65
2022/06/22 13:46:35;;;;;;;7.10;4.80;;;39.40;24.90;;;;;;5048745;28;20049;-65
2022/06/22 13:49:13;;;;;;;5.53;3.53;;;39.80;24.70;;;;;;5021684;28;20068;-65
2022/06/22 13:51:57;;;;;;;4.97;2.85;;;39.50;24.60;;;;;;5109700;27;20051;-65
2022/06/22 13:54:32;;;;;;;8.60;3.50;;;39.00;25.00;;;;;;5104671;27;20055;-65
2022/06/22 13:57:19;;;;;;;5.95;3.30;;;38.80;25.10;;;;;;5149081;27;20051;-65
2022/06/22 13:59:54;;;;;;;8.80;4.10;;;37.80;25.10;;;;;;5142453;27;20546;-65
2022/06/22 14:02:51;;;;;;;8.38;4.13;;;36.00;25.50;;;;;;5142551;27;20100;-64
2022/06/22 14:05:26;;;;;;;9.48;4.70;;;34.50;27.20;;;;;;5143520;27;20038;-64